Time;durP1;ratioP1;P1;durP2;ratioP2;P2;SDS_P1;SDS_P2;PMS_P1;PMS_P2;Temp;Humidity;BMP_temperature;BMP_pressure;BME280_temperature;BME280_humidity;BME280_pressure;Samples;Min_cycle;Max_cycle;Signal;HPM_P1;HPM_P2
2023/02/17 00:00:55;;;;;;;9.88;5.60;;;;;;;10.80;45.95;101683.78;4934881;29;20051;-79
2023/02/17 00:03:24;;;;;;;9.52;5.38;;;;;;;10.81;45.74;101693.69;4956946;28;20548;-80
2023/02/17 00:05:52;;;;;;;8.73;5.50;;;;;;;10.81;45.93;101684.66;4947028;29;20051;-79
2023/02/17 00:08:20;;;;;;;8.88;5.18;;;;;;;10.82;45.85;101687.25;4938759;29;20051;-80
2023/02/17 00:10:56;;;;;;;7.53;5.20;;;;;;;10.84;46.49;101685.28;4946938;29;20059;-79
2023/02/17 00:13:24;;;;;;;7.85;5.10;;;;;;;10.82;45.76;101680.88;4935969;28;20044;-79
2023/02/17 00:15:52;;;;;;;9.25;5.47;;;;;;;10.84;45.81;101687.13;4929626;28;20099;-78
2023/02/17 00:18:20;;;;;;;8.13;5.18;;;;;;;10.81;45.88;101680.00;4930617;29;20051;-79
2023/02/17 00:20:50;;;;;;;8.75;6.03;;;;;;;10.84;46.08;101682.53;4951170;29;20071;-80
2023/02/17 00:23:18;;;;;;;8.07;5.38;;;;;;;10.84;45.91;101678.91;4946778;29;20051;-80
2023/02/17 00:25:46;;;;;;;9.20;5.55;;;;;;;10.84;45.76;101676.19;4935073;28;20051;-79
2023/02/17 00:28:14;;;;;;;8.52;5.78;;;;;;;10.85;46.09;101675.19;4932957;29;20043;-80
2023/02/17 00:30:41;;;;;;;9.27;5.55;;;;;;;10.84;45.99;101677.06;4937695;29;20035;-79
2023/02/17 00:33:09;;;;;;;8.85;6.15;;;;;;;10.84;46.23;101668.84;4944882;29;20044;-80
2023/02/17 00:35:40;;;;;;;8.50;5.35;;;;;;;10.87;45.87;101673.22;4954135;29;20801;-80
2023/02/17 00:38:10;;;;;;;8.65;5.10;;;;;;;10.86;45.62;101674.19;4956636;29;20135;-80
2023/02/17 00:40:38;;;;;;;9.02;5.45;;;;;;;10.85;45.87;101672.44;4969261;28;20066;-77
2023/02/17 00:43:06;;;;;;;8.88;5.03;;;;;;;10.85;46.08;101678.81;4950269;29;20062;-80
2023/02/17 00:45:33;;;;;;;8.30;5.20;;;;;;;10.86;45.93;101674.19;4950622;29;20052;-79
2023/02/17 00:48:01;;;;;;;8.73;5.35;;;;;;;10.86;45.79;101674.19;4957314;28;20039;-80
2023/02/17 00:50:29;;;;;;;9.18;5.82;;;;;;;10.86;46.23;101675.06;4951147;28;20425;-80
2023/02/17 00:52:57;;;;;;;7.68;5.15;;;;;;;10.86;45.80;101668.72;4936854;29;20075;-80
2023/02/17 00:55:26;;;;;;;7.80;4.88;;;;;;;10.88;46.06;101675.84;4953214;28;20035;-80
2023/02/17 00:57:54;;;;;;;7.22;5.40;;;;;;;10.86;46.02;101671.47;4948132;29;20402;-80
2023/02/17 01:00:22;;;;;;;8.38;5.90;;;;;;;10.86;45.96;101668.72;4929184;29;20078;-79
2023/02/17 01:02:50;;;;;;;8.73;5.10;;;;;;;10.86;46.41;101668.72;4944702;29;20058;-78
2023/02/17 01:05:19;;;;;;;9.10;5.05;;;;;;;10.86;46.24;101657.78;4935729;29;20051;-80
2023/02/17 01:07:47;;;;;;;7.78;4.97;;;;;;;10.86;46.15;101663.25;4943825;29;20051;-82
2023/02/17 01:10:15;;;;;;;7.13;4.80;;;;;;;10.86;46.56;101655.91;4951774;28;20039;-80
2023/02/17 01:12:44;;;;;;;7.10;4.65;;;;;;;10.87;46.35;101654.94;4946907;28;20450;-82
2023/02/17 01:15:12;;;;;;;6.00;5.15;;;;;;;10.86;46.42;101653.16;4961337;28;20559;-81
2023/02/17 01:17:40;;;;;;;7.38;4.95;;;;;;;10.86;46.13;101644.97;4949254;29;20048;-80
2023/02/17 01:20:08;;;;;;;6.55;4.35;;;;;;;10.86;46.38;101644.97;4956619;29;20043;-80
2023/02/17 01:22:38;;;;;;;6.40;4.63;;;;;;;10.86;46.56;101638.59;4949967;29;20059;-79
2023/02/17 01:25:07;;;;;;;7.55;5.13;;;;;;;10.85;46.61;101643.22;4960184;28;20107;-79
2023/02/17 01:27:36;;;;;;;7.43;5.13;;;;;;;10.86;46.83;101641.34;4947414;29;20051;-81
2023/02/17 01:30:06;;;;;;;7.55;4.80;;;;;;;10.86;46.48;101635.88;4945064;28;20039;-81
2023/02/17 01:32:34;;;;;;;9.38;4.97;;;;;;;10.86;46.33;101633.13;4936407;29;20092;-80
2023/02/17 01:35:02;;;;;;;7.15;4.82;;;;;;;10.86;46.95;101630.38;4938702;29;20339;-81
2023/02/17 01:37:32;;;;;;;7.70;5.00;;;;;;;10.88;46.82;101631.16;4937486;29;20569;-82
2023/02/17 01:39:59;;;;;;;7.55;4.97;;;;;;;10.85;46.78;101629.50;4956110;28;20106;-81
2023/02/17 01:42:27;;;;;;;7.10;4.65;;;;;;;10.86;46.36;101624.91;4956532;29;20050;-82
2023/02/17 01:45:31;;;;;;;7.20;4.68;;;;;;;10.81;47.10;101619.78;4948130;29;20541;-82
2023/02/17 01:48:05;;;;;;;8.27;4.22;;;;;;;10.85;46.87;101610.34;4947432;28;20099;-81
2023/02/17 01:50:39;;;;;;;7.97;4.72;;;;;;;10.87;46.67;101611.09;4951755;29;20387;-81
2023/02/17 01:53:09;;;;;;;6.47;4.80;;;;;;;10.87;46.56;101613.84;4949299;29;20059;-81
2023/02/17 01:55:39;;;;;;;6.95;4.50;;;;;;;10.88;46.78;101614.72;4934189;29;20494;-81
2023/02/17 01:58:11;;;;;;;6.15;4.05;;;;;;;10.88;46.97;101614.72;4951463;29;20451;-82
2023/02/17 02:00:41;;;;;;;6.63;4.28;;;;;;;10.87;46.75;101615.72;4945329;29;20115;-82
2023/02/17 02:03:12;;;;;;;5.93;4.20;;;;;;;10.89;46.93;101611.00;4949852;29;20047;-82
2023/02/17 02:05:41;;;;;;;7.78;4.80;;;;;;;10.89;46.87;101597.31;4949116;29;20039;-82
2023/02/17 02:08:12;;;;;;;6.78;4.40;;;;;;;10.90;47.06;101602.63;4961038;28;20438;-82
2023/02/17 02:10:40;;;;;;;6.25;4.32;;;;;;;10.87;46.88;101594.69;4949309;29;20107;-82
2023/02/17 02:13:08;;;;;;;6.20;4.05;;;;;;;10.88;46.58;101599.16;4944218;29;20391;-81
2023/02/17 02:15:43;;;;;;;4.93;3.60;;;;;;;10.89;47.40;101589.09;4961901;29;20058;-80
2023/02/17 02:18:27;;;;;;;6.30;4.57;;;;;;;10.91;47.58;101581.59;4968373;29;20034;-79
2023/02/17 02:21:30;;;;;;;6.32;4.57;;;;;;;10.88;47.51;101590.06;4966437;29;20062;-80
2023/02/17 02:24:16;;;;;;;7.43;4.15;;;;;;;10.88;47.53;101596.44;4961353;28;20111;-81
2023/02/17 02:27:26;;;;;;;6.07;4.03;;;;;;;10.83;47.37;101593.16;4941925;29;20071;-82
2023/02/17 02:30:10;;;;;;;6.38;3.72;;;;;;;10.89;47.16;101589.09;4941228;29;20458;-81
2023/02/17 02:33:00;;;;;;;6.22;3.70;;;;;;;10.87;47.75;101583.72;4938562;29;20051;-82
2023/02/17 02:35:37;;;;;;;6.40;3.95;;;;;;;10.89;47.06;101583.63;4953614;29;20111;-82
2023/02/17 02:38:11;;;;;;;5.93;4.18;;;;;;;10.89;46.93;101578.13;4944603;29;20039;-81
2023/02/17 02:40:44;;;;;;;6.28;4.45;;;;;;;10.90;46.92;101575.25;4952075;29;20032;-82
2023/02/17 02:43:14;;;;;;;;;;;;;;;10.63;47.71;101582.00;4943944;29;20050;-80
2023/02/17 02:45:42;;;;;;;5.28;3.72;;;;;;;10.83;46.84;101568.50;4948404;29;19946;-81
2023/02/17 02:48:11;;;;;;;5.78;4.13;;;;;;;10.89;47.36;101570.78;4952356;29;20067;-82
2023/02/17 02:50:59;;;;;;;6.55;4.40;;;;;;;10.91;47.45;101573.38;4928318;29;20052;-80
2023/02/17 02:53:50;;;;;;;6.65;4.40;;;;;;;10.88;47.32;101571.78;4947863;28;20051;-81
2023/02/17 02:56:29;;;;;;;5.55;4.00;;;;;;;10.89;47.53;101561.69;4941413;29;20051;-78
2023/02/17 02:59:06;;;;;;;5.38;3.80;;;;;;;10.90;47.43;101566.16;4938935;29;20054;-81
2023/02/17 03:01:40;;;;;;;5.70;4.20;;;;;;;10.91;47.44;101560.56;4943793;28;20477;-80
2023/02/17 03:04:14;;;;;;;5.15;3.92;;;;;;;10.91;47.21;101551.47;4944253;29;20056;-79
2023/02/17 03:06:48;;;;;;;6.80;4.45;;;;;;;10.92;47.41;101556.84;4919138;29;20066;-79
2023/02/17 03:09:19;;;;;;;6.78;4.43;;;;;;;10.92;47.05;101550.50;4933882;29;20137;-78
2023/02/17 03:11:48;;;;;;;5.43;3.67;;;;;;;10.91;47.33;101548.75;4942642;29;20046;-77
2023/02/17 03:14:20;;;;;;;5.75;4.18;;;;;;;10.93;47.04;101544.91;4939408;28;20039;-79
2023/02/17 03:16:49;;;;;;;5.93;4.10;;;;;;;10.94;47.27;101554.00;4936951;29;20055;-81
2023/02/17 03:19:22;;;;;;;6.35;4.20;;;;;;;10.95;47.14;101548.41;4962671;28;20049;-79
2023/02/17 03:21:53;;;;;;;6.75;4.43;;;;;;;10.95;47.35;101551.13;4953838;29;20407;-80
2023/02/17 03:24:21;;;;;;;6.25;4.40;;;;;;;10.94;47.06;101543.03;4955085;28;20036;-79
2023/02/17 03:26:50;;;;;;;5.53;3.97;;;;;;;10.93;47.05;101550.38;4939393;29;20357;-79
2023/02/17 03:29:18;;;;;;;6.85;5.05;;;;;;;10.94;47.20;101549.38;4940350;29;20048;-80
2023/02/17 03:31:46;;;;;;;6.38;4.20;;;;;;;10.94;47.00;101546.66;4945012;29;20035;-80
2023/02/17 03:34:13;;;;;;;7.35;4.07;;;;;;;10.95;47.35;101544.78;4942937;28;20036;-80
2023/02/17 03:36:43;;;;;;;5.28;3.83;;;;;;;10.98;47.54;101545.41;4964699;29;20054;-79
2023/02/17 03:39:10;;;;;;;6.15;4.10;;;;;;;10.96;47.18;101541.06;4968338;28;20107;-78
2023/02/17 03:41:38;;;;;;;7.07;4.60;;;;;;;10.97;47.55;101540.06;4944458;29;20047;-80
2023/02/17 03:44:06;;;;;;;6.72;4.35;;;;;;;10.96;47.30;101536.44;4955465;29;20112;-79
2023/02/17 03:46:35;;;;;;;5.95;4.32;;;;;;;10.98;47.02;101544.53;4950681;29;20046;-79
2023/02/17 03:49:02;;;;;;;6.50;4.90;;;;;;;10.96;47.65;101536.44;4963706;29;20043;-79
2023/02/17 03:51:30;;;;;;;7.60;4.63;;;;;;;10.98;47.43;101541.78;4962557;29;20067;-78
2023/02/17 03:53:59;;;;;;;6.75;4.60;;;;;;;11.02;47.35;101536.94;4966675;28;20063;-78
2023/02/17 03:56:27;;;;;;;5.95;4.28;;;;;;;11.01;47.43;101544.28;4969198;28;20035;-78
2023/02/17 03:58:55;;;;;;;6.57;4.18;;;;;;;11.00;47.20;101539.81;4948751;29;20201;-78
2023/02/17 04:01:23;;;;;;;6.63;4.35;;;;;;;11.02;47.58;101540.56;4936784;29;20066;-79
2023/02/17 04:03:51;;;;;;;6.45;4.28;;;;;;;11.02;47.24;101542.44;4936104;29;20071;-80
2023/02/17 04:06:19;;;;;;;7.05;4.85;;;;;;;11.03;47.53;101538.69;4936024;29;20064;-80
2023/02/17 04:08:46;;;;;;;6.63;4.50;;;;;;;11.03;47.44;101542.31;4947899;29;20043;-80
2023/02/17 04:11:17;;;;;;;6.45;4.63;;;;;;;11.06;47.30;101539.31;4947621;29;20040;-79
2023/02/17 04:13:45;;;;;;;6.20;4.30;;;;;;;11.04;47.05;101546.81;4960081;28;20062;-80
2023/02/17 04:16:13;;;;;;;6.72;4.65;;;;;;;11.06;47.17;101541.22;4960498;29;20055;-79
2023/02/17 04:18:41;;;;;;;5.65;4.22;;;;;;;11.06;47.44;101547.53;4945209;28;20105;-78
2023/02/17 04:21:08;;;;;;;7.75;4.57;;;;;;;11.05;47.27;101545.81;4963254;29;20043;-79
2023/02/17 04:23:37;;;;;;;6.47;4.50;;;;;;;11.07;47.54;101554.75;4962403;28;20047;-79
2023/02/17 04:26:07;;;;;;;7.70;4.50;;;;;;;11.08;47.24;101548.28;4963444;29;20549;-80
2023/02/17 04:28:38;;;;;;;5.95;4.45;;;;;;;11.10;47.20;101550.91;4944429;29;20035;-78
2023/02/17 04:31:06;;;;;;;5.75;4.32;;;;;;;11.08;47.15;101562.00;4963444;29;20039;-80
2023/02/17 04:33:35;;;;;;;6.72;4.57;;;;;;;11.09;47.13;101547.31;4954002;28;20047;-79
2023/02/17 04:36:03;;;;;;;8.18;4.85;;;;;;;11.09;46.94;101552.78;4946090;29;20055;-79
2023/02/17 04:38:32;;;;;;;6.85;4.50;;;;;;;11.12;47.27;101551.69;4945729;29;20556;-80
2023/02/17 04:41:01;;;;;;;6.43;4.20;;;;;;;11.10;47.33;101551.78;4944817;29;20538;-80
2023/02/17 04:43:29;;;;;;;6.45;4.70;;;;;;;11.11;47.36;101552.66;4946741;29;20067;-80
2023/02/17 04:45:58;;;;;;;6.13;4.03;;;;;;;11.14;46.87;101552.44;4948261;29;20047;-79
2023/02/17 04:48:26;;;;;;;5.78;4.25;;;;;;;11.12;46.97;101555.28;4946763;28;20058;-79
2023/02/17 04:50:54;;;;;;;6.35;4.30;;;;;;;11.13;47.45;101547.94;4942697;29;20055;-79
2023/02/17 04:53:22;;;;;;;6.80;4.63;;;;;;;11.14;47.35;101552.44;4939513;28;20080;-79
2023/02/17 04:55:52;;;;;;;7.53;4.75;;;;;;;11.15;47.30;101551.41;4946412;28;20124;-79
2023/02/17 04:58:21;;;;;;;5.97;4.35;;;;;;;11.13;47.53;101543.34;4937515;29;20043;-79
2023/02/17 05:00:50;;;;;;;5.93;4.15;;;;;;;11.15;47.05;101541.31;4945373;28;20530;-79
2023/02/17 05:03:19;;;;;;;6.25;4.45;;;;;;;11.17;47.53;101549.44;4957331;29;20114;-79
2023/02/17 05:05:47;;;;;;;7.97;4.57;;;;;;;11.16;47.45;101542.19;4931316;29;20430;-79
2023/02/17 05:08:15;;;;;;;6.13;4.38;;;;;;;11.17;46.79;101546.69;4953977;28;20698;-78
2023/02/17 05:10:43;;;;;;;5.78;3.92;;;;;;;11.16;46.85;101556.78;4952633;28;20058;-80
2023/02/17 05:13:11;;;;;;;6.60;4.13;;;;;;;11.16;47.08;101556.78;4938802;29;20541;-75
2023/02/17 05:15:39;;;;;;;5.70;4.00;;;;;;;11.18;47.14;101551.19;4936588;29;20051;-79
2023/02/17 05:18:07;;;;;;;7.25;4.28;;;;;;;11.17;47.38;101550.31;4931012;29;20051;-81
2023/02/17 05:20:36;;;;;;;5.88;4.25;;;;;;;11.20;47.35;101549.19;4930224;29;20047;-79
2023/02/17 05:23:04;;;;;;;6.22;4.30;;;;;;;11.19;47.25;101539.22;4940720;29;20414;-80
2023/02/17 05:25:32;;;;;;;5.90;4.00;;;;;;;11.20;47.35;101535.50;4952137;28;20058;-79
2023/02/17 05:28:00;;;;;;;5.97;4.03;;;;;;;11.21;46.96;101529.03;4960381;29;20053;-77
2023/02/17 05:30:28;;;;;;;6.55;4.00;;;;;;;11.22;47.02;101526.19;4951244;28;20062;-79
2023/02/17 05:32:56;;;;;;;6.28;4.22;;;;;;;11.21;46.92;101523.56;4940633;29;20063;-80
2023/02/17 05:35:24;;;;;;;6.30;4.43;;;;;;;11.23;46.95;101524.28;4950482;29;20047;-80
2023/02/17 05:37:53;;;;;;;6.07;4.22;;;;;;;11.25;47.01;101520.44;4938297;29;20414;-80
2023/02/17 05:40:21;;;;;;;5.55;4.40;;;;;;;11.24;47.20;101531.50;4940556;29;20493;-79
2023/02/17 05:42:49;;;;;;;5.45;4.13;;;;;;;11.24;47.08;101528.75;4949829;29;20050;-78
2023/02/17 05:45:17;;;;;;;5.68;4.10;;;;;;;11.24;46.85;101528.75;4934830;29;20077;-80
2023/02/17 05:47:45;;;;;;;6.05;4.10;;;;;;;11.23;46.91;101525.16;4937825;29;20493;-79
2023/02/17 05:50:13;;;;;;;6.72;4.20;;;;;;;11.22;46.91;101520.69;4960310;28;20043;-80
2023/02/17 05:52:40;;;;;;;5.32;4.00;;;;;;;11.24;47.32;101513.19;4959088;29;20566;-80
2023/02/17 05:55:10;;;;;;;5.28;3.83;;;;;;;11.25;46.96;101514.94;4952212;29;20102;-80
2023/02/17 05:57:38;;;;;;;6.20;4.03;;;;;;;11.23;46.82;101519.66;4933485;29;20043;-80
2023/02/17 06:00:07;;;;;;;5.93;3.95;;;;;;;11.26;47.33;101521.31;4947567;28;20052;-79
2023/02/17 06:02:41;;;;;;;6.50;3.78;;;;;;;11.25;47.12;101520.44;4930161;29;20514;-79
2023/02/17 06:05:09;;;;;;;5.97;3.80;;;;;;;11.26;46.96;101526.78;4951348;28;20039;-80
2023/02/17 06:07:37;;;;;;;6.13;4.18;;;;;;;11.24;47.17;101529.63;4946153;28;20036;-80
2023/02/17 06:10:07;;;;;;;6.85;4.50;;;;;;;11.24;46.98;101535.13;4944133;28;20051;-79
2023/02/17 06:12:36;;;;;;;5.65;4.10;;;;;;;11.25;47.26;101534.13;4934709;28;20052;-80
2023/02/17 06:15:05;;;;;;;6.35;3.90;;;;;;;11.23;47.17;101524.28;4951219;28;20066;-80
2023/02/17 06:17:32;;;;;;;6.05;4.05;;;;;;;11.24;47.17;101521.41;4955073;28;20105;-80
2023/02/17 06:20:00;;;;;;;5.82;4.25;;;;;;;11.24;46.80;101512.31;4932992;29;20047;-79
2023/02/17 06:22:28;;;;;;;6.28;4.18;;;;;;;11.24;46.97;101506.84;4946811;28;20349;-80
2023/02/17 06:24:56;;;;;;;5.65;4.28;;;;;;;11.24;46.98;101506.84;4937551;29;20041;-79
2023/02/17 06:27:25;;;;;;;5.93;3.97;;;;;;;11.24;47.41;101510.47;4953490;29;20383;-80
2023/02/17 06:29:54;;;;;;;6.50;4.50;;;;;;;11.25;47.04;101512.22;4935367;29;20054;-79
2023/02/17 06:32:22;;;;;;;5.60;4.15;;;;;;;11.24;46.98;101515.94;4937023;29;20047;-80
2023/02/17 06:34:50;;;;;;;6.47;3.90;;;;;;;11.24;47.21;101509.59;4933322;29;20105;-79
2023/02/17 06:37:17;;;;;;;7.15;4.57;;;;;;;11.23;47.36;101503.22;4940214;29;20047;-79
2023/02/17 06:39:45;;;;;;;5.13;3.95;;;;;;;11.24;47.01;101504.97;4942875;29;20043;-79
2023/02/17 06:42:13;;;;;;;7.07;4.43;;;;;;;11.25;47.50;101520.44;4934670;28;20047;-79
2023/02/17 06:44:41;;;;;;;6.95;4.05;;;;;;;11.24;47.53;101526.91;4935999;29;20047;-80
2023/02/17 06:47:10;;;;;;;6.55;4.45;;;;;;;11.25;47.54;101525.91;4939902;28;20059;-80
2023/02/17 06:49:37;;;;;;;7.15;4.20;;;;;;;11.25;47.34;101522.28;4951726;28;20381;-80
2023/02/17 06:52:07;;;;;;;6.53;4.55;;;;;;;11.24;47.21;101521.41;4951661;29;20039;-79
2023/02/17 06:54:35;;;;;;;5.68;3.67;;;;;;;11.26;47.27;101526.78;4955546;28;20108;-79
2023/02/17 06:57:03;;;;;;;6.15;4.05;;;;;;;11.25;47.63;101523.16;4934546;29;20052;-80
2023/02/17 06:59:32;;;;;;;6.47;4.32;;;;;;;11.27;47.72;101523.94;4926652;29;20054;-80
2023/02/17 07:02:00;;;;;;;7.60;4.28;;;;;;;11.25;47.85;101523.16;4960940;29;20050;-79
2023/02/17 07:04:30;;;;;;;6.93;4.18;;;;;;;11.27;47.54;101518.44;4954532;29;20046;-78
2023/02/17 07:06:58;;;;;;;6.05;4.20;;;;;;;11.25;47.59;101525.91;4962136;29;20146;-80
2023/02/17 07:09:26;;;;;;;7.60;4.20;;;;;;;11.26;48.08;101530.41;4944371;29;20139;-79
2023/02/17 07:11:54;;;;;;;5.47;3.65;;;;;;;11.25;47.80;101509.47;4955328;28;20133;-80
2023/02/17 07:14:22;;;;;;;5.72;4.03;;;;;;;11.27;47.76;101503.88;4953579;29;20043;-79
2023/02/17 07:16:52;;;;;;;6.65;4.32;;;;;;;11.26;48.05;101513.97;4941179;29;20067;-79
2023/02/17 07:19:20;;;;;;;5.78;4.15;;;;;;;11.26;47.92;101505.72;4940173;29;20058;-80
2023/02/17 07:21:49;;;;;;;6.82;4.30;;;;;;;11.29;47.65;101518.31;4945941;28;20058;-80
2023/02/17 07:24:17;;;;;;;5.95;4.22;;;;;;;11.26;48.28;101518.56;4943462;29;20363;-80
2023/02/17 07:26:45;;;;;;;6.65;4.03;;;;;;;11.27;48.10;101517.56;4954949;28;20058;-79
2023/02/17 07:29:12;;;;;;;9.02;4.18;;;;;;;11.26;48.16;101513.97;4937591;29;20039;-79
2023/02/17 07:31:40;;;;;;;6.20;3.80;;;;;;;11.26;48.04;101527.66;4940656;29;20051;-80
2023/02/17 07:34:08;;;;;;;6.20;4.30;;;;;;;11.26;48.18;101524.03;4955252;29;20043;-79
2023/02/17 07:36:36;;;;;;;6.25;4.25;;;;;;;11.27;47.94;101523.06;4948001;28;20399;-80
2023/02/17 07:39:05;;;;;;;6.22;4.20;;;;;;;11.29;48.17;101529.28;4941316;29;20054;-79
2023/02/17 07:41:33;;;;;;;6.45;3.88;;;;;;;11.28;48.15;101528.41;4954767;29;20058;-79
2023/02/17 07:44:08;;;;;;;7.13;4.53;;;;;;;11.26;48.27;101527.66;4948681;29;20035;-80
2023/02/17 07:46:38;;;;;;;6.78;4.03;;;;;;;11.30;48.36;101531.03;4938419;29;20521;-78
2023/02/17 07:49:06;;;;;;;7.22;4.20;;;;;;;11.29;48.35;101523.81;4955993;29;20055;-78
2023/02/17 07:51:34;;;;;;;5.40;3.53;;;;;;;11.31;48.02;101532.75;4952622;29;20058;-79
2023/02/17 07:54:02;;;;;;;5.82;4.10;;;;;;;11.31;48.34;101532.75;4947088;29;20047;-80
2023/02/17 07:56:32;;;;;;;5.88;3.85;;;;;;;11.32;48.52;101529.91;4951717;29;20055;-81
2023/02/17 07:59:00;;;;;;;5.97;4.00;;;;;;;11.33;48.13;101528.03;4936790;29;20480;-81
2023/02/17 08:01:28;;;;;;;6.10;3.83;;;;;;;11.33;48.42;101534.38;4951283;29;20047;-81
2023/02/17 08:03:56;;;;;;;5.47;3.97;;;;;;;11.35;48.52;101537.00;4942050;29;20039;-81
2023/02/17 08:06:25;;;;;;;6.38;3.50;;;;;;;11.36;48.49;101536.03;4957737;29;20051;-80
2023/02/17 08:14:29;;;;;;;6.45;4.38;;;;;;;11.36;48.24;101534.16;4933389;29;20185;-80
2023/02/17 08:16:57;;;;;;;5.93;3.45;;;;;;;11.36;48.18;101531.41;4948144;28;20051;-79
2023/02/17 08:19:26;;;;;;;5.68;3.40;;;;;;;11.37;48.34;101532.28;4938371;29;20061;-81
2023/02/17 08:22:06;;;;;;;5.82;3.70;;;;;;;11.38;48.66;101525.81;4934677;29;20044;-80
2023/02/17 08:24:34;;;;;;;5.60;3.80;;;;;;;11.40;48.62;101534.75;4952065;29;20040;-81
2023/02/17 08:27:03;;;;;;;6.93;3.60;;;;;;;11.43;48.24;101534.53;4940212;29;20059;-80
2023/02/17 08:29:31;;;;;;;5.05;3.55;;;;;;;11.42;48.42;101538.25;4948643;28;20062;-79
2023/02/17 08:31:59;;;;;;;6.13;3.92;;;;;;;11.44;48.49;101536.28;4903253;29;1130619;-82
2023/02/17 08:34:32;;;;;;;5.63;3.45;;;;;;;11.46;48.36;101530.69;4956926;29;20043;-80
2023/02/17 08:37:00;;;;;;;6.88;3.90;;;;;;;11.45;48.60;101528.94;4957211;28;20109;-80
2023/02/17 08:39:28;;;;;;;6.30;3.50;;;;;;;11.48;48.71;101521.31;4947463;29;20124;-79
2023/02/17 08:41:56;;;;;;;6.38;3.72;;;;;;;11.50;48.62;101522.06;4950564;29;20070;-80
2023/02/17 08:44:26;;;;;;;5.88;3.78;;;;;;;11.52;48.71;101532.91;4960000;28;20225;-80
2023/02/17 08:46:54;;;;;;;5.40;3.85;;;;;;;11.52;48.65;101533.78;4960700;29;20106;-81
2023/02/17 08:49:25;;;;;;;5.53;3.40;;;;;;;11.55;48.94;101522.59;4937953;28;20043;-81
2023/02/17 08:51:53;;;;;;;4.93;3.80;;;;;;;11.55;48.28;101519.84;4948885;29;20059;-80
2023/02/17 08:54:21;;;;;;;6.32;3.50;;;;;;;11.57;48.85;101516.94;4949530;28;20094;-79
2023/02/17 08:56:49;;;;;;;5.03;3.47;;;;;;;11.59;48.95;101518.56;4946712;29;20495;-79
2023/02/17 08:59:17;;;;;;;6.18;3.17;;;;;;;11.62;48.46;101520.25;4937297;29;20047;-81
2023/02/17 09:01:46;;;;;;;5.88;3.50;;;;;;;11.65;48.63;101519.97;4937429;29;20066;-81
2023/02/17 09:04:15;;;;;;;6.25;3.35;;;;;;;11.67;48.52;101524.34;4928550;29;20055;-80
2023/02/17 09:06:45;;;;;;;4.97;3.30;;;;;;;11.70;48.38;101525.97;4945197;29;20043;-81
2023/02/17 09:09:16;;;;;;;5.43;3.20;;;;;;;11.71;48.50;101512.13;4950339;28;20047;-80
2023/02/17 09:11:45;;;;;;;5.18;3.20;;;;;;;11.73;48.52;101529.31;4939146;29;20062;-80
2023/02/17 09:14:13;;;;;;;5.22;3.08;;;;;;;11.76;48.82;101513.63;4938786;29;20055;-80
2023/02/17 09:16:41;;;;;;;5.20;3.22;;;;;;;11.78;48.48;101523.47;4948444;29;20055;-81
2023/02/17 09:19:10;;;;;;;6.65;3.30;;;;;;;11.82;48.57;101518.59;4949124;29;20051;-81
2023/02/17 09:21:38;;;;;;;5.13;3.10;;;;;;;11.84;48.42;101519.34;4941377;29;20047;-81
2023/02/17 09:24:06;;;;;;;5.53;2.92;;;;;;;11.85;48.45;101521.97;4945806;28;20043;-81
2023/02/17 09:26:34;;;;;;;4.78;3.05;;;;;;;11.88;48.49;101537.31;4944463;29;20089;-81
2023/02/17 09:29:02;;;;;;;4.88;3.00;;;;;;;11.90;48.87;101536.16;4934733;29;20691;-81
2023/02/17 09:31:31;;;;;;;5.15;3.00;;;;;;;11.95;48.94;101535.78;4936556;29;20050;-81
2023/02/17 09:33:59;;;;;;;5.28;3.15;;;;;;;11.98;49.01;101538.25;4951575;29;20386;-80
2023/02/17 09:36:30;;;;;;;5.40;2.85;;;;;;;12.00;48.83;101539.00;4937055;29;20098;-81
2023/02/17 09:38:59;;;;;;;4.80;2.95;;;;;;;12.02;48.74;101534.28;4943958;28;20490;-81
2023/02/17 09:41:34;;;;;;;5.85;3.05;;;;;;;12.07;48.63;101545.72;4937484;28;20107;-81
2023/02/17 09:44:02;;;;;;;5.55;2.90;;;;;;;12.06;48.77;101546.72;4934350;29;20067;-81
2023/02/17 09:46:33;;;;;;;4.80;2.70;;;;;;;12.11;48.79;101545.38;4944308;29;20497;-82
2023/02/17 09:49:06;;;;;;;5.20;2.90;;;;;;;12.14;48.56;101530.50;4941540;28;20035;-82
2023/02/17 09:51:41;;;;;;;8.50;3.30;;;;;;;12.18;48.81;101540.22;4945866;29;20487;-81
2023/02/17 09:54:17;;;;;;;3.95;2.55;;;;;;;12.22;48.92;101560.03;4947193;28;20039;-80
2023/02/17 09:56:48;;;;;;;4.45;2.83;;;;;;;12.23;48.33;101546.19;4947375;28;20755;-81
2023/02/17 09:59:22;;;;;;;5.20;2.40;;;;;;;12.26;48.83;101554.19;4952098;29;20556;-81
2023/02/17 10:01:52;;;;;;;3.80;2.40;;;;;;;12.29;48.69;101544.84;4951214;29;20041;-81
2023/02/17 10:04:24;;;;;;;4.15;2.40;;;;;;;12.32;48.54;101552.78;4944304;29;20521;-81
2023/02/17 10:07:01;;;;;;;5.10;2.75;;;;;;;12.35;48.83;101555.28;4937644;29;20074;-81
2023/02/17 10:09:35;;;;;;;4.72;2.72;;;;;;;12.40;48.41;101561.25;4940719;29;20144;-81
2023/02/17 10:12:08;;;;;;;4.85;2.63;;;;;;;12.42;48.53;101556.50;4947958;29;20044;-81
2023/02/17 10:14:41;;;;;;;6.03;2.75;;;;;;;12.44;48.55;101557.25;4949538;29;20086;-80
2023/02/17 10:17:13;;;;;;;;;;;;;;;12.21;48.81;101561.06;4952298;29;20055;-80
2023/02/17 10:19:51;;;;;;;4.10;2.40;;;;;;;12.47;48.39;101559.72;4969031;28;19946;-79
2023/02/17 10:22:23;;;;;;;4.80;2.40;;;;;;;12.53;48.49;101556.47;4972891;28;20043;-79
2023/02/17 10:24:51;;;;;;;4.93;2.63;;;;;;;12.53;48.63;101542.75;4962269;29;20039;-81
2023/02/17 10:27:28;;;;;;;4.00;2.33;;;;;;;12.59;48.22;101550.47;4952979;28;20103;-81
2023/02/17 10:30:08;;;;;;;5.82;2.78;;;;;;;12.61;48.63;101553.97;4932017;29;20050;-80
2023/02/17 10:32:50;;;;;;;6.05;2.53;;;;;;;12.63;48.63;101560.19;4949103;29;20399;-81
2023/02/17 10:35:24;;;;;;;6.22;2.35;;;;;;;12.66;48.12;101550.84;4938775;28;20439;-81
2023/02/17 10:38:01;;;;;;;5.18;2.58;;;;;;;12.69;48.13;101556.06;4939972;29;20039;-82
2023/02/17 10:40:29;;;;;;;5.63;2.88;;;;;;;12.70;48.56;101546.84;4949431;28;20305;-81
2023/02/17 10:43:00;;;;;;;5.38;2.60;;;;;;;12.74;48.10;101560.16;4951332;29;20530;-80
2023/02/17 10:45:33;;;;;;;3.65;2.28;;;;;;;12.77;48.44;101562.66;4942097;29;20130;-81
2023/02/17 10:48:04;;;;;;;4.78;2.42;;;;;;;12.80;48.30;101572.50;4950458;29;20039;-79
2023/02/17 10:50:32;;;;;;;6.13;2.50;;;;;;;12.82;48.10;101559.50;4931301;29;20505;-80
2023/02/17 10:53:02;;;;;;;5.80;2.53;;;;;;;12.85;48.25;101565.63;4943630;29;20052;-79
2023/02/17 10:55:37;;;;;;;5.65;2.80;;;;;;;12.88;48.17;101558.97;4939347;28;20524;-79
2023/02/17 10:58:11;;;;;;;3.97;2.45;;;;;;;12.90;48.04;101556.09;4939878;28;20044;-79
2023/02/17 11:00:41;;;;;;;5.13;2.55;;;;;;;12.91;48.23;101546.84;4932932;29;20047;-79
2023/02/17 11:03:19;;;;;;;4.63;2.50;;;;;;;12.96;47.88;101539.06;4943950;29;20106;-80
2023/02/17 11:05:54;;;;;;;4.20;2.65;;;;;;;12.97;47.62;101541.69;4944068;29;20051;-79
2023/02/17 11:08:33;;;;;;;3.90;2.40;;;;;;;12.99;47.41;101549.81;4942812;29;20545;-79
2023/02/17 11:11:04;;;;;;;4.03;2.30;;;;;;;12.99;47.73;101553.41;4934638;29;20059;-79
2023/02/17 11:13:36;;;;;;;4.10;2.20;;;;;;;13.01;47.80;101548.66;4941119;28;20046;-79
2023/02/17 11:16:05;;;;;;;4.80;2.50;;;;;;;13.01;47.69;101554.16;4948661;28;20047;-79
2023/02/17 11:18:39;;;;;;;4.13;2.42;;;;;;;13.04;47.92;101539.25;4942172;28;20517;-80
2023/02/17 11:21:10;;;;;;;4.53;2.67;;;;;;;13.04;47.62;101534.66;4931265;29;20073;-80
2023/02/17 11:23:49;;;;;;;4.22;2.60;;;;;;;13.09;47.88;101535.13;4936851;29;20051;-80
2023/02/17 11:26:22;;;;;;;4.80;2.50;;;;;;;13.10;48.03;101528.63;4956826;28;20137;-79
2023/02/17 11:28:49;;;;;;;;;;;;;;;12.83;48.21;101531.91;4949365;28;20071;-79
2023/02/17 11:31:25;;;;;;;4.22;2.35;;;;;;;13.14;47.70;101513.59;4938094;29;19934;-80
2023/02/17 11:33:53;;;;;;;3.83;2.30;;;;;;;13.17;47.71;101506.97;4940583;29;20047;-79
2023/02/17 11:36:25;;;;;;;5.03;2.53;;;;;;;13.21;47.74;101512.03;4943834;29;20047;-78
2023/02/17 11:38:56;;;;;;;3.78;2.20;;;;;;;13.26;47.76;101506.16;4943771;29;20043;-81
2023/02/17 11:41:24;;;;;;;4.63;2.50;;;;;;;13.28;47.47;101493.16;4943012;28;20052;-80
2023/02/17 11:43:54;;;;;;;4.45;2.50;;;;;;;13.33;47.80;101503.72;4942879;28;20059;-79
2023/02/17 11:46:27;;;;;;;4.00;2.60;;;;;;;13.37;47.78;101505.19;4937767;28;20059;-79